Etusivu
METAR-TAF:

METAR-TAF

Lentoasemat :

New Orleans, Louisiana, Yhdysvallat

Leveyspiiri: 29-59-34N, Pituuspiiri: 090-15-03W, korkeus merenpinnasta: 1 m

Tämänhetkinen sää

Tämä raportti tehtiin 22 minuuttia sitten, kello 11.53 UTC
Tuuli 7 kn koillisesta
Lämpötila 1°C
Kosteus 64%
Ilmanpaine 1026 hPa
Näkyvyys: 16.1 km
Hajonneita pilviä 25000 ft:n korkeudessa

METAR: KMSY 131153Z 04007KT 10SM BKN250 01/M05 A3031 RMK AO2 SLP267 T00111050 10022 20011 53001

Aika: 06:15 (12:15 UTC)

Sääennuste

Tämä raportti tehtiin 24 minuuttia sitten, kello 11.51 UTC
Ennuste voimassa 13. päivästä klo 12 UTC - 14. päivään klo 18 UTC
Tuuli 9 kn koillisesta
Näkyvyys: 10 km
Muutamia pilviä 20000 ft:n korkeudessa
Muutamia pilviä 25000 ft:n korkeudessa
From 14. päivästä klo 1400 UTC
Tuuli 6 kn pohjoisesta
Näkyvyys: 10 km
Pilvistä 10000 ft:n korkeudessa

TAF: KMSY 131151Z 1312/1418 04009KT P6SM FEW200 FEW250 FM141400 01006KT P6SM OVC100

Säähavainnot ja -ennusteet yli 4000 lentoasemalta (METAR- ja TAF-raportit).

Käytössä olevat sääasemat on merkitty karttaan keltaisilla ja punaisilla pisteillä.

Aseta hiiri pisteen päälle nähdäksesi sääaseman nimen.

Klikkaa sitten nähdäksesi säähavainnot ja -ennusteet.

Kartan vaihtaminen: klikkaa mustalla rastilla varustettuja vihreitä pisteitä, niin voit zoomata sisään; viivalla varustettua vihreää pistettä, niin voit zoomata ulos tai vihreitä nuolia, niin pääset viereisille kartoille.


METAR-TAF: